• Join FlightAware (Why Join?)
  • Login
  • US Flag 
11:57PM EST


 

Airport Tracker/Info


-or-


 

Live Flight TrackerFlight Track Log ✈ N261B ✈ 27-Nov-2013 ✈ KVTA - 4G4

Flight Track Log - Related Links

Times and Time Zones

All times are in EST time to prevent confusion due to time zone crossing. See the N261B flight status page for this flight to view local times or setup timezone preferences in your user account.

Time Position Orientation Groundspeed Altitude Reporting Facility
EST Latitude Longitude Course Direction KTS MPH feet Rate Location/Type
06:32PM 40.0550 -82.3828 270° West 119 137 4,000  Level Indianapolis Center
06:32PM 40.0550 -82.3831 270° West 119 137 3,900 960 Descending Indianapolis Center
06:33PM 40.0722 -82.3525 54° Northeast 112 129 5,100 1,140 Climbing Indianapolis Center
06:34PM 40.0878 -82.3219 56° Northeast 104 120 6,300 960 Climbing Indianapolis Center
06:36PM 40.1086 -82.2753 60° Northeast 126 145 7,100 300 Climbing Indianapolis Center
06:37PM 40.1331 -82.2286 56° Northeast 151 174 7,000 -120 Descending Indianapolis Center
06:38PM 40.1594 -82.1786 55° Northeast 165 190 6,900 -60 Descending Indianapolis Center
06:39PM 40.1847 -82.1275 57° Northeast 166 191 6,900  Level Indianapolis Center
06:40PM 40.2114 -82.0778 55° Northeast 168 193 7,000  Climbing Indianapolis Center
06:41PM 40.2408 -82.0217 55° Northeast 165 190 7,000 -120 Level Indianapolis Center
06:42PM 40.2669 -81.9728 55° Northeast 164 189 6,800  Descending Indianapolis Center
06:43PM 40.2928 -81.9222 56° Northeast 165 190 7,000 60 Climbing Indianapolis Center
06:44PM 40.3183 -81.8708 57° Northeast 165 190 7,000 -60 Level Indianapolis Center
06:45PM 40.3453 -81.8219 54° Northeast 165 190 6,900  Descending Indianapolis Center
06:46PM 40.3711 -81.7706 57° Northeast 168 193 7,100  Climbing Indianapolis Center
06:47PM 40.4011 -81.7103 57° Northeast 168 193 6,900 -60 Descending Indianapolis Center
06:48PM 40.4283 -81.6592 55° Northeast 170 196 7,000  Climbing Indianapolis Center
06:49PM 40.4561 -81.6108 53° Northeast 167 192 6,900  Descending Indianapolis Center
06:50PM 40.4850 -81.5639 51° Northeast 165 190 7,000 -60 Climbing Indianapolis Center
06:51PM 40.5147 -81.5186 49° Northeast 163 188 6,800 -480 Descending Indianapolis Center
06:52PM 40.5458 -81.4686 51° Northeast 172 198 6,100 -660 Descending Indianapolis Center
06:53PM 40.5769 -81.4061 57° Northeast 174 200 5,500 -540 Descending Indianapolis Center
06:54PM 40.6011 -81.3567 57° Northeast 167 192 5,000 -600 Descending Indianapolis Center
06:55PM 40.6300 -81.3031 55° Northeast 170 196 4,300 -780 Descending Indianapolis Center
06:56PM 40.6592 -81.2503 54° Northeast 174 200 3,500 -540 Descending Indianapolis Center
06:57PM 40.6883 -81.1975 54° Northeast 176 203 3,300 -240 Descending Indianapolis Center
06:58PM 40.7156 -81.1464 55° Northeast 174 200 3,100 -120 Descending Indianapolis Center
06:59PM 40.7425 -81.0964 55° Northeast 170 196 3,100  Level Indianapolis Center
07:00PM 40.7681 -81.0503 54° Northeast 164 189 3,200  Climbing Indianapolis Center
07:02PM 40.8011 -80.9900 54° Northeast 162 186 3,100 -60 Descending Cleveland Center
07:03PM 40.8281 -80.9394 55° Northeast 165 190 3,100 -120 Level Cleveland Center
07:05PM 40.8856 -80.8336 54° Northeast 162 186 2,900 -60 Descending Cleveland Center
07:06PM 40.9108 -80.7856 55° Northeast 161 185 3,000  Climbing Cleveland Center
07:07PM 40.9367 -80.7367 55° Northeast 162 186 3,000 -120 Level Cleveland Center
07:08PM 40.9547 -80.6903 63° Northeast 150 173 2,800 -240 Descending Cleveland Center